createdAt,value
2019-05-19T00:02:07.609Z,14.80
2019-05-19T00:04:36.050Z,14.70
2019-05-19T00:07:04.581Z,14.70
2019-05-19T00:09:33.005Z,14.60
2019-05-19T00:12:01.433Z,14.60
2019-05-19T00:14:29.881Z,14.60
2019-05-19T00:16:58.309Z,14.60
2019-05-19T00:19:27.295Z,14.50
2019-05-19T00:21:55.769Z,14.60
2019-05-19T00:24:24.197Z,14.50
2019-05-19T00:26:52.640Z,14.50
2019-05-19T00:29:21.074Z,14.40
2019-05-19T00:31:49.516Z,14.40
2019-05-19T00:34:17.953Z,14.30
2019-05-19T00:36:46.381Z,14.30
2019-05-19T00:39:14.831Z,14.30
2019-05-19T00:41:43.262Z,14.20
2019-05-19T00:44:11.969Z,14.10
2019-05-19T00:46:40.412Z,14.10
2019-05-19T00:49:08.862Z,14.10
2019-05-19T00:51:37.652Z,14.10
2019-05-19T00:54:06.104Z,14.00
2019-05-19T00:56:34.717Z,13.90
2019-05-19T00:59:04.129Z,13.90
2019-05-19T01:01:32.631Z,13.80
2019-05-19T01:04:01.316Z,13.90
2019-05-19T01:06:29.746Z,13.90
2019-05-19T01:08:58.186Z,13.80
2019-05-19T01:11:26.633Z,13.80
2019-05-19T01:13:55.106Z,13.90
2019-05-19T01:16:23.601Z,13.80
2019-05-19T01:18:52.049Z,13.80
2019-05-19T01:21:20.939Z,13.80
2019-05-19T01:23:49.377Z,13.90
2019-05-19T01:26:17.802Z,13.90
2019-05-19T01:28:46.241Z,13.90
2019-05-19T01:31:14.684Z,13.90
2019-05-19T01:33:43.105Z,14.00
2019-05-19T01:36:11.546Z,14.00
2019-05-19T01:38:40.269Z,14.10
2019-05-19T01:41:08.726Z,14.10
2019-05-19T01:43:37.152Z,14.20
2019-05-19T01:46:05.599Z,14.20
2019-05-19T01:48:34.085Z,14.10
2019-05-19T01:51:02.530Z,14.10
2019-05-19T01:53:30.967Z,14.00
2019-05-19T01:55:59.401Z,14.00
2019-05-19T01:58:27.903Z,13.90
2019-05-19T02:00:56.339Z,13.90
2019-05-19T02:03:24.773Z,13.90
2019-05-19T02:05:53.200Z,13.90
2019-05-19T02:08:21.633Z,13.90
2019-05-19T02:10:50.070Z,13.90
2019-05-19T02:13:18.574Z,13.90
2019-05-19T02:15:47.030Z,13.90
2019-05-19T02:18:15.542Z,13.90
2019-05-19T02:20:45.217Z,14.00
2019-05-19T02:23:13.643Z,14.00
2019-05-19T02:25:42.083Z,14.00
2019-05-19T02:28:10.523Z,13.90
2019-05-19T02:30:39.124Z,13.80
2019-05-19T02:33:07.553Z,13.80
2019-05-19T02:35:35.986Z,13.80
2019-05-19T02:38:04.413Z,13.80
2019-05-19T02:40:33.779Z,13.90
2019-05-19T02:43:02.763Z,13.90
2019-05-19T02:45:33.878Z,13.90
2019-05-19T02:48:04.153Z,13.80
2019-05-19T02:50:50.868Z,13.80
2019-05-19T02:53:06.157Z,13.80
2019-05-19T02:55:35.126Z,13.60
2019-05-19T02:58:03.826Z,13.60
2019-05-19T03:00:40.265Z,13.60
2019-05-19T03:03:09.239Z,13.50
2019-05-19T03:05:38.181Z,13.50
2019-05-19T03:08:06.817Z,13.50
2019-05-19T03:10:35.259Z,13.60
2019-05-19T03:13:03.688Z,13.60
2019-05-19T03:15:32.183Z,13.60
2019-05-19T03:18:00.633Z,13.60
2019-05-19T03:20:29.057Z,13.50
2019-05-19T03:22:57.564Z,13.40
2019-05-19T03:25:26.007Z,13.30
2019-05-19T03:27:54.434Z,13.30
2019-05-19T03:30:30.521Z,13.40
2019-05-19T03:33:00.664Z,13.30
2019-05-19T03:35:29.334Z,13.30
2019-05-19T03:37:57.770Z,13.10
2019-05-19T03:40:26.471Z,13.20
2019-05-19T03:42:54.990Z,13.20
2019-05-19T03:45:23.431Z,13.10
2019-05-19T03:47:51.869Z,13.10
2019-05-19T03:50:20.288Z,13.10
2019-05-19T03:52:48.742Z,13.00
2019-05-19T03:55:17.168Z,13.00
2019-05-19T03:57:45.604Z,13.10
2019-05-19T04:00:14.474Z,13.10
2019-05-19T04:02:42.910Z,13.10
2019-05-19T04:05:11.409Z,13.20
2019-05-19T04:07:39.839Z,13.10
2019-05-19T04:10:08.610Z,13.10
2019-05-19T04:12:37.302Z,13.10
2019-05-19T04:15:06.673Z,13.10
2019-05-19T04:17:35.101Z,13.10
2019-05-19T04:20:04.308Z,13.00
2019-05-19T04:22:32.734Z,13.10
2019-05-19T04:25:01.174Z,13.20
2019-05-19T04:27:29.597Z,13.20
2019-05-19T04:29:58.417Z,13.40
2019-05-19T04:32:26.841Z,13.40
2019-05-19T04:34:55.284Z,13.30
2019-05-19T04:37:23.714Z,13.30
2019-05-19T04:39:52.394Z,13.30
2019-05-19T04:42:20.821Z,13.20
2019-05-19T04:44:49.252Z,13.20
2019-05-19T04:47:17.670Z,13.30
2019-05-19T04:49:46.583Z,13.30
2019-05-19T04:52:15.085Z,13.30
2019-05-19T04:54:43.537Z,13.20
2019-05-19T04:57:11.963Z,13.20
2019-05-19T04:59:40.398Z,13.30
2019-05-19T05:02:08.910Z,13.30
2019-05-19T05:04:37.353Z,13.30
2019-05-19T05:07:05.781Z,13.30
2019-05-19T05:09:34.212Z,13.40
2019-05-19T05:12:02.673Z,13.40
2019-05-19T05:14:31.108Z,13.40
2019-05-19T05:16:59.541Z,13.40
2019-05-19T05:19:27.977Z,13.40
2019-05-19T05:21:56.417Z,13.50
2019-05-19T05:24:28.461Z,13.50
2019-05-19T05:26:55.256Z,13.50
2019-05-19T05:29:23.696Z,13.50
2019-05-19T05:31:52.125Z,13.50
2019-05-19T05:34:20.554Z,13.50
2019-05-19T05:36:48.994Z,13.50
2019-05-19T05:39:17.421Z,13.60
2019-05-19T05:41:45.940Z,13.70
2019-05-19T05:44:14.369Z,13.70
2019-05-19T05:46:42.874Z,13.80
2019-05-19T05:49:11.303Z,13.80
2019-05-19T05:51:39.738Z,13.80
2019-05-19T05:54:08.413Z,13.80
2019-05-19T05:56:36.853Z,13.90
2019-05-19T05:59:05.281Z,14.00
2019-05-19T06:01:33.721Z,14.00
2019-05-19T06:04:02.157Z,14.10
2019-05-19T06:06:30.600Z,14.20
2019-05-19T06:08:59.028Z,14.20
2019-05-19T06:11:27.463Z,14.40
2019-05-19T06:13:55.920Z,14.30
2019-05-19T06:16:24.363Z,14.30
2019-05-19T06:18:52.794Z,14.40
2019-05-19T06:21:21.318Z,14.40
2019-05-19T06:23:49.758Z,14.50
2019-05-19T06:26:18.204Z,14.70
2019-05-19T06:28:46.690Z,14.70
2019-05-19T06:31:15.141Z,14.80
2019-05-19T06:33:43.569Z,14.90
2019-05-19T06:36:12.016Z,15.00
2019-05-19T06:38:40.705Z,15.00
2019-05-19T06:41:09.142Z,15.10
2019-05-19T06:43:37.587Z,15.10
2019-05-19T06:46:06.017Z,15.10
2019-05-19T06:48:34.464Z,15.10
2019-05-19T06:51:02.898Z,15.00
2019-05-19T06:53:31.356Z,15.00
2019-05-19T06:55:59.850Z,15.00
2019-05-19T06:58:28.293Z,15.10
2019-05-19T07:00:59.136Z,15.20
2019-05-19T07:03:26.888Z,15.20
2019-05-19T07:05:55.313Z,15.50
2019-05-19T07:08:23.750Z,15.70
2019-05-19T07:10:52.185Z,15.80
2019-05-19T07:13:20.616Z,16.10
2019-05-19T07:16:06.926Z,16.40
2019-05-19T07:18:43.330Z,16.30
2019-05-19T07:21:19.767Z,16.20
2019-05-19T07:23:54.375Z,16.30
2019-05-19T07:26:22.801Z,16.20
2019-05-19T07:28:51.239Z,16.10
2019-05-19T07:31:19.918Z,16.00
2019-05-19T07:33:48.364Z,16.00
2019-05-19T07:36:16.792Z,16.10
2019-05-19T07:38:45.496Z,16.20
2019-05-19T07:41:13.918Z,16.30
2019-05-19T07:43:42.353Z,16.20
2019-05-19T07:46:10.778Z,16.40
2019-05-19T07:48:39.221Z,16.50
2019-05-19T07:51:13.505Z,16.60
2019-05-19T07:53:43.293Z,16.70
2019-05-19T07:56:11.909Z,16.80
2019-05-19T07:58:40.348Z,17.00
2019-05-19T08:01:08.782Z,16.90
2019-05-19T08:03:40.278Z,17.00
2019-05-19T08:06:08.829Z,17.20
2019-05-19T08:08:37.388Z,17.30
2019-05-19T08:11:05.833Z,17.30
2019-05-19T08:13:34.299Z,17.40
2019-05-19T08:16:02.821Z,17.50
2019-05-19T08:18:31.284Z,17.60
2019-05-19T08:20:59.757Z,17.70
2019-05-19T08:23:28.178Z,17.60
2019-05-19T08:25:56.634Z,17.70
2019-05-19T08:28:25.073Z,17.60
2019-05-19T08:30:53.522Z,17.60
2019-05-19T08:33:21.987Z,17.70
2019-05-19T08:35:50.520Z,17.80
2019-05-19T08:38:19.093Z,17.80
2019-05-19T08:40:47.567Z,17.80
2019-05-19T08:43:16.069Z,17.80
2019-05-19T08:45:44.580Z,18.10
2019-05-19T08:48:13.007Z,18.20
2019-05-19T08:50:41.450Z,18.20
2019-05-19T08:53:09.881Z,18.30
2019-05-19T08:55:38.338Z,18.30
2019-05-19T08:58:06.848Z,18.40
2019-05-19T09:00:38.470Z,18.50
2019-05-19T09:03:05.445Z,18.60
2019-05-19T09:05:33.962Z,18.60
2019-05-19T09:08:02.467Z,18.70
2019-05-19T09:10:30.906Z,18.70
2019-05-19T09:12:59.331Z,18.70
2019-05-19T09:15:27.776Z,18.90
2019-05-19T09:17:56.213Z,19.00
2019-05-19T09:20:24.657Z,19.00
2019-05-19T09:22:53.148Z,19.10
2019-05-19T09:25:21.607Z,19.10
2019-05-19T09:27:50.032Z,19.30
2019-05-19T09:30:18.550Z,19.10
2019-05-19T09:32:46.977Z,19.00
2019-05-19T09:35:15.808Z,19.20
2019-05-19T09:37:44.304Z,19.20
2019-05-19T09:40:13.241Z,19.30
2019-05-19T09:42:41.689Z,19.50
2019-05-19T09:45:10.660Z,19.50
2019-05-19T09:47:39.093Z,19.60
2019-05-19T09:50:08.168Z,19.50
2019-05-19T09:52:36.628Z,19.60
2019-05-19T09:55:06.062Z,19.70
2019-05-19T09:57:34.599Z,19.70
2019-05-19T10:00:04.371Z,19.70
2019-05-19T10:02:32.829Z,19.70
2019-05-19T10:05:01.272Z,19.60
2019-05-19T10:07:29.724Z,19.60
2019-05-19T10:10:03.130Z,19.50
2019-05-19T10:12:31.736Z,19.50
2019-05-19T10:15:00.460Z,19.50
2019-05-19T10:17:29.056Z,19.50
2019-05-19T10:19:57.500Z,19.60
2019-05-19T10:22:26.014Z,19.80
2019-05-19T10:25:10.396Z,19.70
2019-05-19T10:27:24.627Z,19.90
2019-05-19T10:29:53.058Z,20.00
2019-05-19T10:32:21.569Z,20.00
2019-05-19T10:34:49.993Z,20.10
2019-05-19T10:37:18.467Z,20.10
2019-05-19T10:39:46.896Z,20.30
2019-05-19T10:42:15.366Z,20.40
2019-05-19T10:44:43.809Z,20.60
2019-05-19T10:47:12.301Z,20.60
2019-05-19T10:49:42.978Z,20.60
2019-05-19T10:52:11.169Z,20.60
2019-05-19T10:54:39.616Z,20.60
2019-05-19T10:57:08.061Z,20.70
2019-05-19T10:59:36.541Z,20.90
2019-05-19T11:02:05.123Z,21.00
2019-05-19T11:04:33.583Z,21.10
2019-05-19T11:07:02.079Z,21.00
2019-05-19T11:09:30.594Z,21.10
2019-05-19T11:11:59.031Z,21.30
2019-05-19T11:14:27.501Z,21.30
2019-05-19T11:16:55.933Z,21.50
2019-05-19T11:19:28.654Z,21.50
2019-05-19T11:21:57.369Z,21.60
2019-05-19T11:24:25.820Z,21.80
2019-05-19T11:26:54.248Z,21.80
2019-05-19T11:29:22.764Z,21.80
2019-05-19T11:31:51.227Z,21.80
2019-05-19T11:34:19.718Z,21.90
2019-05-19T11:36:48.146Z,22.00
2019-05-19T11:39:16.590Z,22.20
2019-05-19T11:41:45.043Z,22.30
2019-05-19T11:44:13.485Z,22.40
2019-05-19T11:46:42.180Z,22.40
2019-05-19T11:49:10.865Z,22.50
2019-05-19T11:51:39.321Z,22.60
2019-05-19T11:54:07.776Z,22.70
2019-05-19T11:56:36.201Z,22.80
2019-05-19T11:59:04.726Z,22.80
2019-05-19T12:01:33.162Z,22.80
2019-05-19T12:04:01.635Z,22.80
2019-05-19T12:06:38.728Z,22.90
2019-05-19T12:09:00.322Z,23.00
2019-05-19T12:11:28.777Z,23.00
2019-05-19T12:13:57.210Z,23.00
2019-05-19T12:16:25.652Z,23.10
2019-05-19T12:18:57.321Z,23.20
2019-05-19T12:21:24.343Z,23.30
2019-05-19T12:23:52.776Z,23.40
2019-05-19T12:26:23.455Z,25.40
2019-05-19T12:28:51.393Z,23.50
2019-05-19T12:31:19.855Z,23.50
2019-05-19T12:33:52.121Z,23.50
2019-05-19T12:36:18.493Z,23.60
2019-05-19T12:38:46.918Z,23.70
2019-05-19T12:41:15.369Z,23.80
2019-05-19T12:43:43.817Z,23.90
2019-05-19T12:46:16.567Z,23.90
2019-05-19T12:48:42.449Z,24.10
2019-05-19T12:51:10.902Z,24.10
2019-05-19T12:53:39.402Z,24.10
2019-05-19T12:56:07.905Z,24.30
2019-05-19T12:58:36.367Z,24.50
2019-05-19T13:01:04.875Z,24.60
2019-05-19T13:03:33.593Z,24.60
2019-05-19T13:06:02.048Z,24.70
2019-05-19T13:08:30.506Z,24.60
2019-05-19T13:10:58.982Z,24.70
2019-05-19T13:13:27.423Z,24.80
2019-05-19T13:15:55.879Z,24.80
2019-05-19T13:18:24.400Z,24.70
2019-05-19T13:20:52.820Z,24.60
2019-05-19T13:23:21.270Z,24.70
2019-05-19T13:25:49.739Z,24.70
2019-05-19T13:28:18.170Z,24.80
2019-05-19T13:30:46.609Z,24.90
2019-05-19T13:33:15.322Z,24.80
2019-05-19T13:35:43.783Z,24.70
2019-05-19T13:38:12.235Z,24.60
2019-05-19T13:40:40.686Z,24.50
2019-05-19T13:43:09.133Z,24.60
2019-05-19T13:45:37.944Z,24.70
2019-05-19T13:48:06.463Z,24.50
2019-05-19T13:50:34.900Z,24.60
2019-05-19T13:53:03.590Z,24.60
2019-05-19T13:55:32.037Z,24.70
2019-05-19T13:58:03.439Z,24.60
2019-05-19T14:00:30.618Z,24.60
2019-05-19T14:02:59.790Z,24.70
2019-05-19T14:05:28.473Z,24.60
2019-05-19T14:07:56.909Z,24.50
2019-05-19T14:10:25.594Z,24.60
2019-05-19T14:12:54.037Z,24.70
2019-05-19T14:15:22.478Z,24.70
2019-05-19T14:17:50.908Z,24.90
2019-05-19T14:20:19.488Z,24.80
2019-05-19T14:22:47.932Z,24.70
2019-05-19T14:25:16.453Z,24.50
2019-05-19T14:27:44.877Z,24.40
2019-05-19T14:30:13.553Z,24.50
2019-05-19T14:32:41.976Z,24.50
2019-05-19T14:35:10.492Z,24.50
2019-05-19T14:37:41.837Z,24.50
2019-05-19T14:40:10.517Z,24.60
2019-05-19T14:42:43.538Z,24.80
2019-05-19T14:45:12.399Z,24.90
2019-05-19T14:47:40.834Z,24.70
2019-05-19T14:50:09.349Z,24.70
2019-05-19T14:52:37.770Z,24.70
2019-05-19T14:55:06.374Z,24.70
2019-05-19T14:57:44.444Z,24.90
2019-05-19T15:00:08.977Z,25.00
2019-05-19T15:02:37.420Z,25.20
2019-05-19T15:05:07.557Z,25.30
2019-05-19T15:07:35.981Z,25.40
2019-05-19T15:10:07.442Z,25.70
2019-05-19T15:12:38.024Z,26.00
2019-05-19T15:15:07.996Z,26.00
2019-05-19T15:17:36.431Z,26.70
2019-05-19T15:20:07.497Z,27.70
2019-05-19T15:22:35.933Z,28.10
2019-05-19T15:25:11.865Z,28.20
2019-05-19T15:27:40.374Z,27.60
2019-05-19T15:30:13.256Z,27.10
2019-05-19T15:32:39.185Z,26.80
2019-05-19T15:35:07.760Z,26.80
2019-05-19T15:37:36.188Z,26.90
2019-05-19T15:40:08.040Z,27.10
2019-05-19T15:42:36.528Z,26.60
2019-05-19T15:45:05.781Z,25.90
2019-05-19T15:47:34.250Z,25.40
2019-05-19T15:50:02.796Z,24.70
2019-05-19T15:52:31.232Z,24.10
2019-05-19T15:54:59.677Z,23.80
2019-05-19T15:57:28.748Z,23.70
2019-05-19T15:59:57.332Z,23.60
2019-05-19T16:02:25.784Z,23.40
2019-05-19T16:04:54.294Z,23.20
2019-05-19T16:07:23.025Z,23.00
2019-05-19T16:09:51.454Z,23.40
2019-05-19T16:12:19.881Z,24.30
2019-05-19T16:14:48.322Z,25.60
2019-05-19T16:17:16.753Z,26.80
2019-05-19T16:19:45.182Z,27.30
2019-05-19T16:22:13.616Z,28.20
2019-05-19T16:24:42.049Z,28.60
2019-05-19T16:27:12.839Z,27.60
2019-05-19T16:29:40.653Z,29.80
2019-05-19T16:32:09.108Z,29.30
2019-05-19T16:34:37.531Z,28.20
2019-05-19T16:37:05.972Z,27.90
2019-05-19T16:39:34.411Z,27.10
2019-05-19T16:42:02.846Z,26.20
2019-05-19T16:44:31.289Z,25.80
2019-05-19T16:46:59.793Z,25.50
2019-05-19T16:49:28.243Z,25.80
2019-05-19T16:51:56.660Z,26.30
2019-05-19T16:54:26.746Z,26.50
2019-05-19T16:56:55.911Z,26.40
2019-05-19T16:59:26.390Z,26.20
2019-05-19T17:01:56.818Z,26.50
2019-05-19T17:04:28.007Z,26.80
2019-05-19T17:06:56.813Z,27.00
2019-05-19T17:09:26.622Z,27.10
2019-05-19T17:11:55.413Z,27.50
2019-05-19T17:14:25.527Z,27.90
2019-05-19T17:16:58.918Z,27.70
2019-05-19T17:19:27.487Z,26.60
2019-05-19T17:21:55.922Z,25.80
2019-05-19T17:24:24.375Z,26.20
2019-05-19T17:26:52.801Z,24.40
2019-05-19T17:29:21.248Z,26.80
2019-05-19T17:31:49.676Z,26.30
2019-05-19T17:34:18.143Z,26.20
2019-05-19T17:36:46.641Z,25.70
2019-05-19T17:39:15.095Z,25.20
2019-05-19T17:41:43.514Z,24.90
2019-05-19T17:44:11.961Z,24.50
2019-05-19T17:46:40.417Z,24.30
2019-05-19T17:49:09.140Z,24.10
2019-05-19T17:51:37.569Z,24.00
2019-05-19T17:54:06.087Z,23.80
2019-05-19T17:56:35.757Z,23.40
2019-05-19T17:59:15.866Z,23.30
2019-05-19T18:01:34.345Z,23.10
2019-05-19T18:04:02.795Z,22.90
2019-05-19T18:06:31.531Z,22.70
2019-05-19T18:08:59.993Z,24.60
2019-05-19T18:11:28.425Z,22.30
2019-05-19T18:13:56.864Z,22.20
2019-05-19T18:16:25.320Z,22.20
2019-05-19T18:18:53.753Z,22.20
2019-05-19T18:21:22.446Z,22.20
2019-05-19T18:23:50.932Z,22.20
2019-05-19T18:26:19.424Z,22.30
2019-05-19T18:28:47.857Z,22.00
2019-05-19T18:31:16.289Z,21.60
2019-05-19T18:33:45.125Z,21.50
2019-05-19T18:36:13.845Z,21.60
2019-05-19T18:38:42.521Z,21.50
2019-05-19T18:41:10.969Z,21.30
2019-05-19T18:43:39.397Z,21.10
2019-05-19T18:46:07.835Z,20.90
2019-05-19T18:48:36.253Z,20.50
2019-05-19T18:51:04.695Z,20.30
2019-05-19T18:53:33.167Z,19.90
2019-05-19T18:56:01.679Z,19.70
2019-05-19T18:58:30.102Z,19.60
2019-05-19T19:00:58.542Z,19.50
2019-05-19T19:03:26.974Z,19.20
2019-05-19T19:05:55.416Z,19.10
2019-05-19T19:08:23.865Z,18.90
2019-05-19T19:10:52.309Z,18.80
2019-05-19T19:13:20.732Z,18.70
2019-05-19T19:15:49.177Z,18.60
2019-05-19T19:18:17.854Z,18.50
2019-05-19T19:20:46.297Z,18.30
2019-05-19T19:23:14.729Z,18.20
2019-05-19T19:25:43.157Z,18.10
2019-05-19T19:28:11.593Z,17.90
2019-05-19T19:30:40.025Z,17.80
2019-05-19T19:33:08.634Z,17.70
2019-05-19T19:35:39.772Z,17.60
2019-05-19T19:38:08.354Z,17.50
2019-05-19T19:40:36.863Z,17.40
2019-05-19T19:43:05.583Z,17.40
2019-05-19T19:45:34.257Z,17.30
2019-05-19T19:48:02.705Z,17.20
2019-05-19T19:50:31.138Z,17.20
2019-05-19T19:52:59.573Z,17.10
2019-05-19T19:55:28.252Z,17.00
2019-05-19T19:57:56.958Z,16.80
2019-05-19T20:00:37.285Z,16.80
2019-05-19T20:03:06.660Z,16.80
2019-05-19T20:05:35.173Z,16.70
2019-05-19T20:08:03.781Z,16.60
2019-05-19T20:10:32.206Z,16.60
2019-05-19T20:13:00.644Z,16.50
2019-05-19T20:15:29.084Z,16.50
2019-05-19T20:17:57.514Z,16.40
2019-05-19T20:20:25.953Z,16.40
2019-05-19T20:22:54.393Z,16.30
2019-05-19T20:25:22.825Z,16.20
2019-05-19T20:27:51.265Z,16.10
2019-05-19T20:30:34.630Z,16.20
2019-05-19T20:32:50.301Z,16.10
2019-05-19T20:35:18.741Z,16.20
2019-05-19T20:37:48.125Z,16.20
2019-05-19T20:40:17.238Z,16.10
2019-05-19T20:42:45.780Z,16.00
2019-05-19T20:45:14.455Z,16.00
2019-05-19T20:47:42.876Z,16.00
2019-05-19T20:50:11.966Z,16.00
2019-05-19T20:52:40.652Z,15.90
2019-05-19T20:55:09.513Z,15.90
2019-05-19T20:57:37.942Z,15.80
2019-05-19T21:00:07.282Z,15.90
2019-05-19T21:02:35.710Z,15.80
2019-05-19T21:05:05.200Z,15.80
2019-05-19T21:07:33.656Z,15.70
2019-05-19T21:10:02.183Z,15.70
2019-05-19T21:12:30.665Z,15.70
2019-05-19T21:14:59.093Z,15.60
2019-05-19T21:17:27.528Z,15.70
2019-05-19T21:19:55.973Z,15.60
2019-05-19T21:22:24.409Z,15.60
2019-05-19T21:24:52.917Z,15.60
2019-05-19T21:27:21.345Z,12.00
2019-05-19T21:29:49.803Z,15.60
2019-05-19T21:32:18.316Z,15.60
2019-05-19T21:34:46.812Z,15.50
2019-05-19T21:37:15.261Z,15.50
2019-05-19T21:39:43.697Z,15.50
2019-05-19T21:42:12.125Z,15.40
2019-05-19T21:44:40.573Z,15.50
2019-05-19T21:47:09.041Z,15.40
2019-05-19T21:49:37.521Z,15.50
2019-05-19T21:52:05.957Z,15.50
2019-05-19T21:54:34.417Z,15.50
2019-05-19T21:57:02.842Z,15.40
2019-05-19T21:59:31.278Z,15.40
2019-05-19T22:01:59.877Z,15.40
2019-05-19T22:04:28.313Z,15.40
2019-05-19T22:06:58.391Z,15.40
2019-05-19T22:09:26.813Z,15.40
2019-05-19T22:11:55.262Z,15.30
2019-05-19T22:14:23.685Z,15.30
2019-05-19T22:16:52.118Z,15.30
2019-05-19T22:19:20.557Z,15.30
2019-05-19T22:21:48.997Z,15.20
2019-05-19T22:24:17.479Z,15.20
2019-05-19T22:26:45.921Z,15.20
2019-05-19T22:29:14.344Z,15.10
2019-05-19T22:31:42.785Z,15.10
2019-05-19T22:34:11.209Z,15.10
2019-05-19T22:36:39.657Z,15.10
2019-05-19T22:39:08.258Z,15.00
2019-05-19T22:41:36.697Z,15.00
2019-05-19T22:44:05.135Z,15.00
2019-05-19T22:46:33.573Z,15.00
2019-05-19T22:49:02.015Z,15.00
2019-05-19T22:51:30.448Z,14.90
2019-05-19T22:53:58.877Z,14.80
2019-05-19T22:56:27.316Z,14.80
2019-05-19T22:58:55.745Z,14.80
2019-05-19T23:01:24.182Z,14.70
2019-05-19T23:03:52.605Z,14.70
2019-05-19T23:06:21.050Z,14.70
2019-05-19T23:08:49.721Z,14.70
2019-05-19T23:11:18.153Z,14.70
2019-05-19T23:13:46.585Z,14.50
2019-05-19T23:16:15.020Z,14.50
2019-05-19T23:18:43.444Z,14.50
2019-05-19T23:21:11.884Z,14.50
2019-05-19T23:23:40.316Z,14.40
2019-05-19T23:26:08.753Z,14.40
2019-05-19T23:28:37.185Z,14.30
2019-05-19T23:31:05.616Z,14.30
2019-05-19T23:33:34.058Z,14.30
2019-05-19T23:36:02.497Z,14.30
2019-05-19T23:38:31.241Z,14.30
2019-05-19T23:40:59.680Z,14.30
2019-05-19T23:43:28.126Z,14.20
2019-05-19T23:45:56.549Z,14.30
2019-05-19T23:48:24.989Z,14.10
2019-05-19T23:50:53.418Z,14.10
2019-05-19T23:53:21.849Z,14.10
2019-05-19T23:55:50.283Z,14.20
2019-05-19T23:58:18.723Z,14.10
